createdAt,value
2018-12-08T00:01:01.702Z,86.20
2018-12-08T00:03:32.457Z,85.50
2018-12-08T00:06:01.294Z,85.30
2018-12-08T00:08:30.061Z,85.70
2018-12-08T00:10:58.777Z,85.20
2018-12-08T00:13:27.461Z,85.50
2018-12-08T00:15:56.206Z,85.20
2018-12-08T00:18:25.695Z,85.40
2018-12-08T00:20:55.591Z,85.50
2018-12-08T00:23:24.413Z,85.20
2018-12-08T00:25:53.241Z,85.30
2018-12-08T00:28:22.002Z,84.80
2018-12-08T00:31:02.403Z,84.90
2018-12-08T00:33:31.088Z,85.00
2018-12-08T00:35:59.764Z,84.90
2018-12-08T00:38:28.531Z,84.50
2018-12-08T00:40:57.217Z,84.60
2018-12-08T00:43:25.933Z,84.50
2018-12-08T00:45:54.659Z,84.70
2018-12-08T00:48:23.519Z,84.30
2018-12-08T00:50:52.256Z,84.80
2018-12-08T00:53:20.965Z,84.10
2018-12-08T00:55:49.669Z,83.80
2018-12-08T00:58:18.348Z,83.60
2018-12-08T01:00:47.179Z,83.90
2018-12-08T01:03:15.973Z,83.60
2018-12-08T01:05:44.888Z,83.80
2018-12-08T01:08:13.745Z,83.80
2018-12-08T01:10:42.603Z,82.90
2018-12-08T01:13:11.289Z,83.30
2018-12-08T01:15:40.082Z,82.70
2018-12-08T01:18:08.965Z,82.60
2018-12-08T01:20:37.699Z,82.20
2018-12-08T01:23:06.483Z,82.30
2018-12-08T01:25:36.332Z,82.40
2018-12-08T01:28:05.107Z,83.20
2018-12-08T01:30:33.803Z,81.70
2018-12-08T01:33:02.590Z,82.60
2018-12-08T01:35:31.401Z,82.10
2018-12-08T01:38:00.080Z,81.60
2018-12-08T01:40:28.914Z,82.30
2018-12-08T01:42:57.677Z,82.10
2018-12-08T01:45:26.562Z,81.50
2018-12-08T01:47:55.400Z,82.40
2018-12-08T01:50:24.226Z,81.80
2018-12-08T01:52:53.229Z,82.10
2018-12-08T01:55:22.044Z,82.10
2018-12-08T01:57:50.759Z,81.40
2018-12-08T02:00:19.531Z,81.80
2018-12-08T02:02:48.284Z,82.00
2018-12-08T02:05:17.017Z,81.80
2018-12-08T02:07:45.699Z,82.50
2018-12-08T02:10:14.456Z,82.00
2018-12-08T02:12:43.133Z,81.60
2018-12-08T02:15:11.907Z,82.30
2018-12-08T02:17:40.620Z,81.70
2018-12-08T02:20:09.469Z,81.60
2018-12-08T02:22:38.282Z,81.10
2018-12-08T02:27:42.091Z,80.90
2018-12-08T02:30:10.936Z,81.10
2018-12-08T02:32:39.697Z,80.70
2018-12-08T02:35:08.481Z,81.00
2018-12-08T02:37:37.152Z,81.10
2018-12-08T02:40:07.773Z,81.10
2018-12-08T02:42:36.556Z,80.00
2018-12-08T02:45:05.389Z,79.90
2018-12-08T02:47:34.101Z,80.60
2018-12-08T02:50:02.938Z,80.30
2018-12-08T02:52:31.788Z,81.10
2018-12-08T02:55:00.604Z,80.60
2018-12-08T02:57:29.384Z,79.50
2018-12-08T02:59:58.167Z,80.00
2018-12-08T03:02:27.452Z,79.50
2018-12-08T03:04:56.233Z,79.30
2018-12-08T03:07:25.009Z,79.60
2018-12-08T03:09:53.734Z,79.60
2018-12-08T03:12:22.576Z,79.80
2018-12-08T03:14:51.290Z,79.60
2018-12-08T03:17:20.170Z,79.70
2018-12-08T03:19:48.912Z,79.70
2018-12-08T03:22:17.600Z,79.30
2018-12-08T03:24:53.022Z,79.30
2018-12-08T03:27:21.837Z,79.90
2018-12-08T03:29:50.514Z,79.80
2018-12-08T03:32:19.265Z,79.60
2018-12-08T03:34:47.955Z,79.70
2018-12-08T03:37:16.742Z,80.00
2018-12-08T03:39:45.511Z,79.20
2018-12-08T03:42:15.286Z,79.90
2018-12-08T03:44:44.408Z,79.70
2018-12-08T03:47:13.097Z,79.50
2018-12-08T03:49:41.856Z,79.20
2018-12-08T03:52:10.537Z,79.80
2018-12-08T03:54:39.216Z,79.20
2018-12-08T03:57:08.069Z,79.20
2018-12-08T03:59:36.751Z,79.40
2018-12-08T04:02:05.671Z,79.10
2018-12-08T04:04:34.347Z,79.30
2018-12-08T04:07:03.161Z,79.30
2018-12-08T04:09:31.966Z,79.80
2018-12-08T04:12:00.660Z,79.20
2018-12-08T04:14:29.410Z,79.50
2018-12-08T04:16:58.560Z,79.10
2018-12-08T04:19:28.303Z,78.80
2018-12-08T04:21:57.332Z,79.10
2018-12-08T04:24:28.263Z,79.00
2018-12-08T04:26:56.948Z,79.20
2018-12-08T04:29:25.692Z,78.70
2018-12-08T04:31:54.451Z,79.00
2018-12-08T04:34:23.209Z,79.60
2018-12-08T04:36:51.883Z,79.50
2018-12-08T04:39:20.565Z,79.00
2018-12-08T04:41:49.303Z,79.00
2018-12-08T04:44:18.002Z,79.10
2018-12-08T04:46:46.745Z,79.30
2018-12-08T04:49:15.448Z,79.70
2018-12-08T04:51:44.297Z,79.20
2018-12-08T04:54:13.056Z,80.10
2018-12-08T04:56:41.883Z,78.90
2018-12-08T04:59:10.634Z,79.10
2018-12-08T05:01:39.463Z,79.20
2018-12-08T05:04:08.135Z,79.50
2018-12-08T05:06:36.829Z,79.30
2018-12-08T05:09:06.920Z,80.00
2018-12-08T05:11:35.681Z,80.00
2018-12-08T05:14:04.521Z,80.40
2018-12-08T05:16:33.306Z,80.40
2018-12-08T05:19:02.019Z,80.50
2018-12-08T05:21:30.773Z,80.90
2018-12-08T05:23:59.515Z,81.20
2018-12-08T05:26:28.885Z,81.20
2018-12-08T05:28:57.589Z,81.60
2018-12-08T05:31:26.436Z,81.30
2018-12-08T05:33:55.167Z,81.20
2018-12-08T05:36:24.097Z,81.50
2018-12-08T05:38:52.845Z,81.20
2018-12-08T05:41:21.575Z,81.30
2018-12-08T05:43:50.413Z,81.40
2018-12-08T05:46:19.312Z,81.70
2018-12-08T05:48:48.068Z,81.80
2018-12-08T05:51:16.817Z,81.70
2018-12-08T05:53:45.524Z,82.60
2018-12-08T05:56:14.201Z,81.90
2018-12-08T05:58:42.898Z,82.80
2018-12-08T06:01:12.687Z,83.00
2018-12-08T06:03:41.368Z,82.80
2018-12-08T06:06:10.161Z,83.00
2018-12-08T06:08:38.852Z,82.60
2018-12-08T06:11:07.549Z,83.10
2018-12-08T06:13:37.404Z,83.00
2018-12-08T06:16:06.203Z,82.80
2018-12-08T06:18:35.031Z,82.60
2018-12-08T06:21:10.555Z,82.90
2018-12-08T06:23:39.246Z,82.90
2018-12-08T06:26:13.188Z,82.50
2018-12-08T06:28:44.101Z,82.70
2018-12-08T06:31:12.886Z,82.70
2018-12-08T06:33:41.585Z,82.80
2018-12-08T06:36:10.331Z,83.00
2018-12-08T06:38:39.083Z,83.00
2018-12-08T06:41:07.901Z,82.90
2018-12-08T06:43:36.664Z,83.00
2018-12-08T06:46:05.415Z,83.00
2018-12-08T06:48:34.334Z,83.10
2018-12-08T06:51:03.185Z,83.00
2018-12-08T06:53:31.932Z,82.60
2018-12-08T06:56:00.830Z,82.60
2018-12-08T06:58:29.860Z,82.80
2018-12-08T07:00:58.767Z,82.50
2018-12-08T07:03:27.451Z,82.00
2018-12-08T07:05:56.214Z,82.00
2018-12-08T07:08:24.969Z,82.20
2018-12-08T07:10:53.677Z,82.40
2018-12-08T07:13:22.433Z,82.50
2018-12-08T07:15:51.201Z,82.40
2018-12-08T07:18:19.947Z,82.50
2018-12-08T07:20:48.697Z,82.80
2018-12-08T07:23:17.511Z,82.40
2018-12-08T07:25:46.276Z,82.30
2018-12-08T07:28:15.052Z,82.40
2018-12-08T07:30:43.780Z,82.50
2018-12-08T07:33:12.474Z,82.70
2018-12-08T07:35:41.159Z,83.30
2018-12-08T07:38:09.917Z,83.70
2018-12-08T07:40:38.661Z,84.10
2018-12-08T07:43:07.493Z,84.20
2018-12-08T07:45:36.204Z,84.20
2018-12-08T07:48:05.054Z,83.90
2018-12-08T07:50:33.891Z,84.00
2018-12-08T07:53:04.380Z,84.10
2018-12-08T07:55:33.368Z,84.60
2018-12-08T07:58:02.086Z,83.60
2018-12-08T08:00:30.878Z,83.30
2018-12-08T08:03:00.668Z,83.50
2018-12-08T08:05:30.729Z,83.40
2018-12-08T08:13:02.041Z,83.00
2018-12-08T08:15:30.843Z,83.00
2018-12-08T08:17:59.700Z,83.00
2018-12-08T08:20:28.479Z,82.60
2018-12-08T08:22:57.225Z,83.40
2018-12-08T08:25:25.992Z,83.40
2018-12-08T08:27:54.797Z,83.60
2018-12-08T08:30:23.575Z,83.80
2018-12-08T08:32:52.406Z,83.80
2018-12-08T08:35:21.297Z,83.80
2018-12-08T08:37:50.063Z,84.40
2018-12-08T08:40:18.890Z,84.50
2018-12-08T08:42:47.585Z,85.00
2018-12-08T08:45:16.350Z,84.90
2018-12-08T08:47:45.199Z,85.10
2018-12-08T08:50:14.829Z,85.50
2018-12-08T08:52:43.605Z,85.20
2018-12-08T08:55:12.412Z,85.20
2018-12-08T08:57:41.145Z,84.80
2018-12-08T09:00:10.697Z,85.00
2018-12-08T09:02:39.539Z,85.10
2018-12-08T09:05:09.290Z,84.60
2018-12-08T09:07:38.467Z,84.20
2018-12-08T09:10:10.048Z,84.00
2018-12-08T09:12:38.849Z,83.90
2018-12-08T09:15:08.531Z,83.50
2018-12-08T09:17:38.732Z,84.30
2018-12-08T09:20:09.956Z,83.60
2018-12-08T09:22:39.008Z,82.90
2018-12-08T09:25:08.809Z,82.70
2018-12-08T09:27:38.023Z,82.50
2018-12-08T09:30:09.211Z,82.60
2018-12-08T09:32:38.321Z,82.80
2018-12-08T09:35:07.226Z,82.10
2018-12-08T09:37:36.062Z,82.70
2018-12-08T09:40:05.857Z,82.50
2018-12-08T09:42:34.744Z,83.00
2018-12-08T09:45:03.721Z,83.00
2018-12-08T09:47:32.597Z,83.00
2018-12-08T09:50:01.627Z,83.30
2018-12-08T09:52:31.700Z,83.30
2018-12-08T09:55:00.432Z,83.20
2018-12-08T09:57:29.146Z,83.90
2018-12-08T09:59:57.920Z,83.30
2018-12-08T10:02:26.709Z,83.40
2018-12-08T10:04:55.397Z,83.10
2018-12-08T10:07:24.138Z,82.90
2018-12-08T10:09:52.854Z,83.40
2018-12-08T10:12:21.661Z,82.60
2018-12-08T10:14:50.375Z,82.80
2018-12-08T10:17:19.081Z,82.70
2018-12-08T10:19:47.916Z,83.00
2018-12-08T10:22:16.675Z,83.20
2018-12-08T10:24:45.453Z,84.00
2018-12-08T10:27:14.778Z,84.10
2018-12-08T10:29:43.545Z,84.30
2018-12-08T10:32:12.300Z,85.00
2018-12-08T10:34:41.154Z,84.80
2018-12-08T10:37:09.918Z,85.00
2018-12-08T10:39:40.682Z,85.80
2018-12-08T10:42:09.449Z,85.60
2018-12-08T10:44:38.307Z,85.90
2018-12-08T10:47:07.162Z,85.10
2018-12-08T10:49:35.866Z,84.90
2018-12-08T10:52:04.659Z,84.90
2018-12-08T10:54:35.341Z,84.60
2018-12-08T10:57:04.202Z,84.60
2018-12-08T10:59:32.997Z,84.20
2018-12-08T11:02:02.920Z,84.30
2018-12-08T11:04:32.569Z,84.40
2018-12-08T11:07:02.581Z,84.10
2018-12-08T11:09:31.345Z,84.10
2018-12-08T11:12:00.179Z,83.90
2018-12-08T11:14:28.929Z,84.20
2018-12-08T11:16:57.705Z,84.60
2018-12-08T11:19:26.399Z,85.10
2018-12-08T11:21:55.229Z,84.70
2018-12-08T11:24:23.981Z,84.70
2018-12-08T11:26:52.744Z,85.10
2018-12-08T11:29:21.444Z,85.20
2018-12-08T11:31:51.672Z,85.30
2018-12-08T11:34:20.458Z,85.20
2018-12-08T11:36:49.606Z,85.40
2018-12-08T11:39:18.756Z,85.30
2018-12-08T11:41:47.794Z,85.80
2018-12-08T11:44:16.997Z,86.30
2018-12-08T11:46:46.156Z,86.30
2018-12-08T11:49:14.972Z,86.80
2018-12-08T11:51:43.831Z,86.80
2018-12-08T11:54:12.787Z,87.10
2018-12-08T11:56:41.694Z,86.90
2018-12-08T11:59:10.552Z,86.70
2018-12-08T12:01:39.497Z,87.20
2018-12-08T12:04:08.351Z,87.30
2018-12-08T12:06:37.212Z,87.10
2018-12-08T12:09:07.958Z,87.10
2018-12-08T12:11:38.001Z,86.70
2018-12-08T12:14:06.889Z,86.90
2018-12-08T12:16:35.689Z,86.80
2018-12-08T12:19:04.609Z,86.70
2018-12-08T12:21:34.070Z,86.60
2018-12-08T12:24:02.829Z,87.10
2018-12-08T12:26:31.613Z,86.70
2018-12-08T12:29:00.434Z,86.30
2018-12-08T12:31:29.221Z,86.50
2018-12-08T12:33:57.900Z,86.50
2018-12-08T12:36:26.605Z,87.50
2018-12-08T12:38:55.364Z,86.80
2018-12-08T12:41:24.127Z,87.40
2018-12-08T12:43:52.836Z,87.40
2018-12-08T12:46:21.669Z,87.60
2018-12-08T12:48:51.386Z,87.90
2018-12-08T12:51:20.187Z,88.10
2018-12-08T12:53:48.877Z,87.90
2018-12-08T12:56:17.564Z,87.80
2018-12-08T12:58:46.330Z,87.90
2018-12-08T13:01:15.012Z,87.90
2018-12-08T13:03:43.785Z,87.90
2018-12-08T13:06:12.549Z,88.30
2018-12-08T13:08:41.348Z,88.00
2018-12-08T13:11:10.173Z,87.80
2018-12-08T13:13:38.863Z,87.30
2018-12-08T13:16:07.657Z,87.40
2018-12-08T13:18:36.541Z,86.90
2018-12-08T13:21:05.294Z,87.30
2018-12-08T13:23:33.984Z,87.40
2018-12-08T13:26:02.776Z,87.40
2018-12-08T13:28:31.477Z,87.50
2018-12-08T13:31:00.305Z,87.60
2018-12-08T13:33:29.198Z,87.80
2018-12-08T13:36:00.179Z,87.60
2018-12-08T13:38:29.110Z,87.40
2018-12-08T13:40:58.007Z,87.30
2018-12-08T13:43:26.908Z,86.90
2018-12-08T13:45:55.704Z,86.80
2018-12-08T13:48:26.092Z,87.90
2018-12-08T13:50:55.148Z,87.00
2018-12-08T13:53:23.920Z,86.90
2018-12-08T13:55:52.680Z,86.90
2018-12-08T13:58:21.375Z,86.60
2018-12-08T14:00:50.138Z,86.50
2018-12-08T14:03:18.953Z,86.40
2018-12-08T14:05:47.717Z,86.50
2018-12-08T14:08:16.412Z,85.30
2018-12-08T14:10:45.155Z,85.30
2018-12-08T14:13:13.944Z,85.40
2018-12-08T14:15:42.777Z,85.60
2018-12-08T14:18:11.574Z,86.20
2018-12-08T14:20:40.363Z,86.70
2018-12-08T14:23:09.228Z,86.40
2018-12-08T14:25:38.119Z,85.90
2018-12-08T14:28:07.329Z,85.70
2018-12-08T14:30:36.240Z,85.30
2018-12-08T14:33:05.085Z,85.20
2018-12-08T14:35:33.948Z,85.70
2018-12-08T14:38:02.756Z,85.00
2018-12-08T14:40:31.666Z,84.70
2018-12-08T14:43:00.431Z,84.70
2018-12-08T14:45:29.301Z,84.70
2018-12-08T14:47:58.090Z,84.50
2018-12-08T14:50:26.929Z,84.40
2018-12-08T14:52:55.818Z,84.80
2018-12-08T14:55:24.660Z,84.20
2018-12-08T14:57:53.464Z,84.40
2018-12-08T15:00:22.305Z,84.40
2018-12-08T15:02:51.217Z,84.30
2018-12-08T15:05:20.039Z,84.40
2018-12-08T15:07:48.786Z,84.50
2018-12-08T15:10:17.555Z,84.80
2018-12-08T15:12:46.361Z,84.70
2018-12-08T15:15:15.061Z,84.60
2018-12-08T15:17:43.847Z,85.10
2018-12-08T15:20:12.701Z,85.30
2018-12-08T15:22:41.588Z,85.40
2018-12-08T15:25:10.488Z,85.10
2018-12-08T15:27:39.271Z,85.20
2018-12-08T15:30:09.462Z,85.50
2018-12-08T15:32:38.314Z,84.80
2018-12-08T15:35:09.291Z,85.20
2018-12-08T15:37:38.492Z,84.80
2018-12-08T15:40:08.563Z,85.00
2018-12-08T15:42:37.475Z,85.10
2018-12-08T15:45:08.817Z,85.10
2018-12-08T15:47:37.763Z,84.50
2018-12-08T15:50:09.891Z,84.40
2018-12-08T15:52:38.658Z,84.60
2018-12-08T15:55:07.601Z,84.30
2018-12-08T15:57:36.877Z,84.20
2018-12-08T16:00:08.233Z,84.20
2018-12-08T16:02:37.065Z,84.50
2018-12-08T16:05:07.456Z,83.90
2018-12-08T16:07:37.008Z,84.30
2018-12-08T16:10:06.417Z,84.70
2018-12-08T16:12:35.349Z,84.40
2018-12-08T16:15:05.085Z,84.50
2018-12-08T16:17:33.865Z,85.00
2018-12-08T16:20:02.712Z,85.30
2018-12-08T16:22:31.550Z,84.60
2018-12-08T16:25:00.414Z,84.30
2018-12-08T16:27:29.197Z,83.60
2018-12-08T16:29:57.967Z,83.60
2018-12-08T16:32:26.881Z,83.70
2018-12-08T16:34:55.688Z,82.80
2018-12-08T16:37:24.404Z,82.30
2018-12-08T16:39:53.198Z,82.50
2018-12-08T16:42:22.149Z,82.30
2018-12-08T16:44:50.910Z,81.50
2018-12-08T16:47:19.615Z,82.80
2018-12-08T16:49:48.377Z,83.50
2018-12-08T16:52:17.143Z,82.90
2018-12-08T16:54:45.916Z,82.30
2018-12-08T16:57:14.793Z,82.70
2018-12-08T16:59:43.642Z,82.40
2018-12-08T17:02:12.565Z,82.00
2018-12-08T17:04:41.431Z,82.10
2018-12-08T17:07:10.371Z,82.50
2018-12-08T17:09:39.441Z,81.70
2018-12-08T17:12:08.443Z,81.70
2018-12-08T17:14:37.569Z,81.70
2018-12-08T17:17:07.277Z,81.30
2018-12-08T17:19:36.132Z,81.60
2018-12-08T17:22:04.958Z,81.30
2018-12-08T17:24:33.897Z,81.20
2018-12-08T17:27:03.103Z,81.70
2018-12-08T17:29:32.107Z,81.20
2018-12-08T17:32:01.021Z,81.40
2018-12-08T17:34:29.887Z,80.80
2018-12-08T17:36:58.716Z,81.00
2018-12-08T17:39:27.820Z,81.30
2018-12-08T17:41:56.606Z,81.40
2018-12-08T17:44:25.943Z,81.20
2018-12-08T17:46:54.720Z,82.00
2018-12-08T17:49:23.589Z,82.40
2018-12-08T17:51:52.376Z,82.70
2018-12-08T17:54:21.261Z,83.10
2018-12-08T17:56:50.014Z,82.60
2018-12-08T17:59:18.864Z,82.30
2018-12-08T18:01:47.859Z,82.40
2018-12-08T18:04:17.764Z,82.10
2018-12-08T18:06:46.594Z,81.60
2018-12-08T18:09:15.409Z,81.40
2018-12-08T18:11:44.287Z,81.30
2018-12-08T18:14:13.154Z,80.70
2018-12-08T18:16:42.005Z,80.00
2018-12-08T18:19:10.728Z,80.10
2018-12-08T18:21:39.839Z,80.50
2018-12-08T18:24:08.628Z,80.10
2018-12-08T18:26:37.921Z,80.00
2018-12-08T18:29:06.970Z,80.50
2018-12-08T18:31:35.901Z,80.00
2018-12-08T18:34:05.064Z,79.70
2018-12-08T18:36:34.892Z,79.30
2018-12-08T18:39:05.159Z,79.80
2018-12-08T18:41:35.578Z,79.30
2018-12-08T18:44:04.432Z,79.60
2018-12-08T18:46:33.203Z,79.50
2018-12-08T18:49:01.911Z,79.80
2018-12-08T18:51:30.857Z,80.10
2018-12-08T18:53:59.683Z,80.10
2018-12-08T18:56:28.529Z,80.10
2018-12-08T18:58:57.423Z,80.10
2018-12-08T19:01:26.261Z,80.00
2018-12-08T19:03:54.981Z,79.80
2018-12-08T19:06:23.746Z,80.60
2018-12-08T19:08:52.460Z,79.90
2018-12-08T19:11:21.322Z,80.40
2018-12-08T19:13:50.209Z,80.10
2018-12-08T19:16:19.029Z,80.60
2018-12-08T19:18:47.783Z,80.40
2018-12-08T19:21:16.625Z,80.30
2018-12-08T19:23:45.320Z,81.00
2018-12-08T19:26:14.052Z,80.00
2018-12-08T19:28:42.840Z,80.20
2018-12-08T19:31:11.684Z,80.20
2018-12-08T19:33:41.598Z,80.60
2018-12-08T19:36:10.410Z,80.30
2018-12-08T19:38:45.841Z,79.80
2018-12-08T19:41:14.596Z,80.60
2018-12-08T19:43:43.409Z,79.90
2018-12-08T19:46:12.087Z,80.40
2018-12-08T19:48:40.838Z,80.50
2018-12-08T19:51:09.588Z,79.90
2018-12-08T19:53:38.440Z,80.10
2018-12-08T19:56:09.223Z,80.30
2018-12-08T19:58:38.243Z,80.60
2018-12-08T20:01:07.017Z,80.40
2018-12-08T20:03:35.862Z,80.20
2018-12-08T20:06:04.691Z,79.90
2018-12-08T20:08:33.445Z,79.90
2018-12-08T20:11:02.201Z,79.90
2018-12-08T20:13:31.168Z,79.80
2018-12-08T20:15:59.886Z,79.90
2018-12-08T20:18:28.662Z,79.90
2018-12-08T20:20:57.365Z,79.60
2018-12-08T20:23:26.067Z,79.30
2018-12-08T20:25:54.813Z,79.20
2018-12-08T20:28:23.621Z,79.00
2018-12-08T20:30:52.323Z,79.20
2018-12-08T20:33:21.158Z,79.40
2018-12-08T20:35:49.998Z,79.20
2018-12-08T20:38:18.723Z,79.00
2018-12-08T20:40:47.577Z,79.20
2018-12-08T20:43:16.309Z,79.30
2018-12-08T20:45:45.091Z,79.30
2018-12-08T20:48:14.872Z,79.30
2018-12-08T20:50:43.752Z,79.70
2018-12-08T20:53:12.587Z,79.70
2018-12-08T20:55:41.333Z,79.80
2018-12-08T20:58:10.125Z,79.60
2018-12-08T21:00:38.832Z,79.70
2018-12-08T21:03:08.612Z,80.40
2018-12-08T21:05:37.384Z,79.80
2018-12-08T21:08:06.217Z,80.20
2018-12-08T21:10:34.899Z,80.10
2018-12-08T21:13:03.744Z,80.60
2018-12-08T21:15:32.605Z,80.70
2018-12-08T21:18:01.524Z,80.40
2018-12-08T21:20:30.297Z,80.80
2018-12-08T21:22:59.053Z,80.70
2018-12-08T21:25:27.907Z,80.70
2018-12-08T21:27:56.785Z,81.00
2018-12-08T21:30:25.552Z,81.50
2018-12-08T21:32:54.382Z,81.00
2018-12-08T21:35:23.107Z,81.00
2018-12-08T21:37:51.896Z,81.10
2018-12-08T21:40:25.724Z,81.40
2018-12-08T21:42:54.545Z,81.50
2018-12-08T21:45:23.442Z,81.50
2018-12-08T21:47:52.163Z,81.80
2018-12-08T21:50:21.430Z,81.90
2018-12-08T21:52:50.317Z,82.70
2018-12-08T21:55:19.105Z,82.60
2018-12-08T21:57:47.899Z,82.80
2018-12-08T22:00:16.749Z,83.20
2018-12-08T22:02:45.614Z,83.50
2018-12-08T22:05:14.426Z,84.00
2018-12-08T22:07:43.230Z,84.50
2018-12-08T22:10:11.984Z,85.30
2018-12-08T22:12:40.688Z,85.80
2018-12-08T22:15:16.024Z,86.80
2018-12-08T22:17:45.748Z,86.10
2018-12-08T22:20:14.633Z,84.70
2018-12-08T22:22:43.462Z,84.50
2018-12-08T22:25:12.325Z,84.70
2018-12-08T22:27:41.180Z,85.00
2018-12-08T22:30:10.030Z,85.10
2018-12-08T22:32:39.058Z,85.10
2018-12-08T22:35:07.864Z,85.80
2018-12-08T22:37:36.691Z,85.90
2018-12-08T22:40:06.676Z,86.30
2018-12-08T22:42:35.509Z,86.10
2018-12-08T22:45:05.289Z,86.00
2018-12-08T22:47:34.079Z,86.20
2018-12-08T22:50:02.968Z,85.90
2018-12-08T22:52:31.976Z,86.50
2018-12-08T22:55:00.856Z,86.50
2018-12-08T22:57:29.632Z,86.30
2018-12-08T22:59:58.327Z,86.90
2018-12-08T23:02:27.126Z,86.80
2018-12-08T23:04:55.930Z,86.80
2018-12-08T23:07:24.991Z,86.20
2018-12-08T23:09:53.862Z,86.30
2018-12-08T23:12:22.649Z,86.90
2018-12-08T23:14:51.330Z,86.60
2018-12-08T23:17:20.028Z,86.60
2018-12-08T23:19:48.820Z,86.40
2018-12-08T23:22:17.661Z,86.20
2018-12-08T23:24:46.629Z,85.80
2018-12-08T23:27:15.480Z,86.10
2018-12-08T23:29:44.302Z,85.90
2018-12-08T23:32:13.108Z,85.90
2018-12-08T23:34:43.023Z,87.50
2018-12-08T23:37:11.923Z,86.40
2018-12-08T23:39:40.756Z,87.00
2018-12-08T23:42:09.585Z,86.80
2018-12-08T23:44:39.327Z,86.50
2018-12-08T23:47:08.120Z,86.20
2018-12-08T23:49:36.864Z,86.20
2018-12-08T23:52:05.631Z,86.20
2018-12-08T23:54:34.496Z,86.00
2018-12-08T23:57:03.356Z,86.00
2018-12-08T23:59:32.124Z,86.10
